Time;durP1;ratioP1;P1;durP2;ratioP2;P2;SDS_P1;SDS_P2;PMS_P1;PMS_P2;Temp;Humidity;BMP_temperature;BMP_pressure;BME280_temperature;BME280_humidity;BME280_pressure;Samples;Min_cycle;Max_cycle;Signal;HPM_P1;HPM_P2
2022/01/06 00:02:14;;;;;;;79.22;53.75;;;;;;;14.49;43.61;92611.09;4934846;28;20035;-83
2022/01/06 00:04:41;;;;;;;70.18;46.15;;;;;;;14.44;43.94;92614.56;4935523;28;20039;-84
2022/01/06 00:07:06;;;;;;;64.32;43.78;;;;;;;14.50;43.51;92606.38;4951555;28;20038;-83
2022/01/06 00:09:32;;;;;;;78.43;52.92;;;;;;;14.52;43.45;92606.59;4934943;28;20494;-84
2022/01/06 00:11:57;;;;;;;69.40;47.72;;;;;;;14.47;43.27;92610.84;4951748;28;20046;-83
2022/01/06 00:14:38;;;;;;;71.95;49.45;;;;;;;14.48;43.64;92608.88;4951154;28;20516;-84
2022/01/06 00:25:09;;;;;;;62.17;41.80;;;;;;;14.53;43.32;92632.53;4953751;28;20090;-83
2022/01/06 00:27:34;;;;;;;74.70;48.90;;;;;;;14.50;43.39;92628.88;4968469;28;20450;-83
2022/01/06 00:29:59;;;;;;;71.85;49.90;;;;;;;14.52;43.60;92628.34;4951555;28;20046;-83
2022/01/06 00:32:25;;;;;;;72.53;51.55;;;;;;;14.58;43.49;92632.53;4934597;28;20047;-83
2022/01/06 00:34:50;;;;;;;68.45;48.47;;;;;;;14.53;43.46;92633.28;4950773;28;20529;-83
2022/01/06 00:37:16;;;;;;;79.53;48.80;;;;;;;14.48;43.78;92636.06;4968030;28;20045;-84
2022/01/06 00:39:41;;;;;;;71.97;49.33;;;;;;;14.48;43.51;92639.53;4950779;28;20241;-83
2022/01/06 00:42:07;;;;;;;73.82;49.92;;;;;;;14.48;43.24;92630.63;4934374;28;20043;-83
2022/01/06 00:44:33;;;;;;;69.10;47.58;;;;;;;14.55;43.16;92621.91;4950849;28;20501;-83
2022/01/06 00:46:58;;;;;;;74.80;48.25;;;;;;;14.53;43.44;92638.00;4935223;28;20094;-84
2022/01/06 00:49:23;;;;;;;68.88;48.25;;;;;;;14.55;43.22;92638.97;4950219;28;20035;-83
2022/01/06 00:51:49;;;;;;;71.70;49.28;;;;;;;14.53;43.24;92625.13;4951161;28;20406;-84
2022/01/06 00:54:14;;;;;;;62.22;44.30;;;;;;;14.56;43.05;92629.56;4934481;28;20285;-83
2022/01/06 00:56:40;;;;;;;68.82;47.45;;;;;;;14.54;43.32;92634.75;4951031;28;20031;-84
2022/01/06 00:59:05;;;;;;;71.20;47.83;;;;;;;14.58;43.24;92631.78;4920425;28;20043;-83
2022/01/06 01:01:31;;;;;;;68.53;47.25;;;;;;;14.52;43.31;92631.06;4937748;28;20042;-84
2022/01/06 01:03:56;;;;;;;56.80;39.83;;;;;;;14.46;43.38;92630.38;4954625;28;20406;-84
2022/01/06 01:06:22;;;;;;;73.75;47.63;;;;;;;14.47;43.44;92640.75;4953853;28;20038;-83
2022/01/06 01:08:47;;;;;;;66.35;44.30;;;;;;;14.49;43.34;92630.13;4937883;28;20047;-84
2022/01/06 01:11:13;;;;;;;66.90;46.25;;;;;;;14.52;42.97;92626.38;4953398;28;20045;-83
2022/01/06 01:13:54;;;;;;;68.28;46.20;;;;;;;14.52;43.24;92620.94;4938025;28;20109;-83
2022/01/06 01:16:26;;;;;;;;;;;;;;;14.51;43.33;92632.31;4953939;28;20035;-84
2022/01/06 01:18:51;;;;;;;57.15;38.13;;;;;;;14.58;42.48;92637.22;4971637;28;19961;-83
2022/01/06 01:21:18;;;;;;;65.25;44.78;;;;;;;14.54;43.21;92644.91;4953882;28;20731;-84
2022/01/06 01:23:44;;;;;;;61.63;43.95;;;;;;;14.47;43.29;92642.75;4934713;28;20039;-84
2022/01/06 01:26:09;;;;;;;62.75;42.80;;;;;;;14.47;43.41;92640.75;4918339;28;20038;-83
2022/01/06 01:28:43;;;;;;;62.40;45.00;;;;;;;14.49;43.23;92641.00;4918843;29;20040;-83
2022/01/06 01:33:43;;;;;;;67.95;42.72;;;;;;;14.46;43.65;92658.31;4920961;29;20050;-83
2022/01/06 01:36:08;;;;;;;67.78;45.42;;;;;;;14.52;43.29;92663.72;4941354;28;20042;-83
2022/01/06 01:38:34;;;;;;;63.60;43.35;;;;;;;14.47;43.29;92659.06;4971307;28;20035;-83
2022/01/06 01:40:59;;;;;;;62.90;43.17;;;;;;;14.51;43.10;92662.97;4918464;29;20416;-83
2022/01/06 01:43:25;;;;;;;56.15;39.22;;;;;;;14.47;43.29;92654.34;4918108;28;20538;-83
2022/01/06 01:45:56;;;;;;;66.32;45.20;;;;;;;14.47;43.57;92672.66;4934699;28;20044;-83
2022/01/06 01:48:28;;;;;;;66.15;44.50;;;;;;;14.54;43.06;92661.97;4919953;29;20435;-83
2022/01/06 01:50:53;;;;;;;69.28;45.17;;;;;;;14.50;43.27;92655.34;4919621;29;20035;-83
2022/01/06 01:53:19;;;;;;;66.32;44.35;;;;;;;14.53;43.29;92657.03;4934073;28;20035;-83
2022/01/06 01:55:44;;;;;;;60.92;42.05;;;;;;;14.64;42.74;92656.97;4934648;28;20035;-83
2022/01/06 01:58:09;;;;;;;59.33;41.85;;;;;;;14.59;42.73;92657.75;4918246;28;20607;-83
2022/01/06 02:00:35;;;;;;;61.08;42.55;;;;;;;14.60;42.80;92659.97;4910911;29;20410;-83
2022/01/06 02:03:00;;;;;;;53.58;37.95;;;;;;;14.66;42.69;92657.94;4917936;29;20125;-83
2022/01/06 02:05:27;;;;;;;60.88;43.13;;;;;;;14.57;42.95;92654.78;4933466;28;20521;-83
2022/01/06 02:07:58;;;;;;;69.22;45.00;;;;;;;14.51;43.00;92664.94;4944691;28;20047;-83
2022/01/06 02:10:24;;;;;;;58.47;38.38;;;;;;;14.57;42.88;92662.94;4951070;28;20034;-84
2022/01/06 02:12:51;;;;;;;58.80;40.33;;;;;;;14.51;43.13;92660.25;4950757;28;20039;-83
2022/01/06 02:15:16;;;;;;;54.88;38.38;;;;;;;14.56;42.84;92667.63;4949812;28;20091;-83
2022/01/06 02:17:43;;;;;;;58.22;39.88;;;;;;;14.57;42.93;92662.94;4951967;28;20038;-84
2022/01/06 02:20:10;;;;;;;59.47;41.40;;;;;;;14.56;42.95;92672.34;4968284;28;20038;-83
2022/01/06 02:22:36;;;;;;;63.95;44.00;;;;;;;14.52;42.90;92663.72;4953305;28;20093;-83
2022/01/06 02:25:18;;;;;;;62.00;42.10;;;;;;;14.54;43.12;92664.69;4941053;28;20043;-85
2022/01/06 02:27:50;;;;;;;60.85;40.80;;;;;;;14.61;43.00;92672.31;4952884;28;20417;-83
2022/01/06 02:30:15;;;;;;;55.10;37.50;;;;;;;14.60;43.09;92668.13;4936576;28;20035;-83
2022/01/06 02:32:41;;;;;;;60.20;41.33;;;;;;;14.56;43.17;92661.47;4936783;28;20026;-83
2022/01/06 02:35:12;;;;;;;63.88;43.05;;;;;;;14.54;43.00;92672.09;4952465;28;20062;-84
2022/01/06 02:37:38;;;;;;;60.13;41.35;;;;;;;14.53;42.92;92667.91;4953462;28;20097;-83
2022/01/06 02:40:11;;;;;;;56.47;37.60;;;;;;;14.52;43.03;92669.16;4919817;28;20545;-83
2022/01/06 02:42:48;;;;;;;59.30;41.75;;;;;;;14.53;43.25;92667.91;4921275;28;20061;-83
2022/01/06 02:45:13;;;;;;;56.72;38.67;;;;;;;14.63;42.91;92672.56;4936410;28;20035;-83
2022/01/06 02:47:39;;;;;;;64.80;43.67;;;;;;;14.56;43.30;92667.63;4935939;28;20371;-83
2022/01/06 02:50:05;;;;;;;55.88;34.90;;;;;;;14.59;42.75;92671.34;4920380;28;20101;-83
2022/01/06 02:52:30;;;;;;;57.47;40.25;;;;;;;14.58;43.03;92667.88;4969632;28;20055;-83
2022/01/06 02:54:56;;;;;;;49.85;33.95;;;;;;;14.62;42.80;92667.63;4936475;28;20039;-83
2022/01/06 02:57:21;;;;;;;60.15;39.25;;;;;;;14.59;42.86;92663.91;4935853;28;20537;-83
2022/01/06 02:59:47;;;;;;;57.20;38.40;;;;;;;14.55;43.05;92663.44;4951715;28;20054;-83
2022/01/06 03:02:12;;;;;;;54.13;37.75;;;;;;;14.57;43.00;92677.28;4951045;28;20062;-84
2022/01/06 03:04:37;;;;;;;51.45;37.22;;;;;;;14.58;42.94;92676.03;4952171;28;20031;-83
2022/01/06 03:07:03;;;;;;;61.90;40.90;;;;;;;14.56;43.12;92683.97;4935838;28;20042;-83
2022/01/06 03:09:37;;;;;;;59.17;40.38;;;;;;;14.57;42.93;92671.09;4952069;28;20043;-83
2022/01/06 03:12:06;;;;;;;57.70;39.50;;;;;;;14.56;42.82;92677.78;4933495;28;20047;-84
2022/01/06 03:14:32;;;;;;;53.03;38.50;;;;;;;14.52;43.11;92688.91;4917303;29;20564;-83
2022/01/06 03:16:58;;;;;;;55.53;39.25;;;;;;;14.54;42.97;92696.56;4917383;29;20050;-83
2022/01/06 03:19:23;;;;;;;51.35;36.83;;;;;;;14.55;43.20;92687.19;4916471;28;20475;-83
2022/01/06 03:21:48;;;;;;;54.67;39.40;;;;;;;14.50;43.12;92693.41;4916404;29;20410;-83
2022/01/06 03:24:16;;;;;;;57.90;39.38;;;;;;;14.59;42.55;92703.97;4908528;28;20039;-83
2022/01/06 03:26:41;;;;;;;54.40;37.42;;;;;;;14.49;43.15;92697.38;4969557;28;20062;-83
2022/01/06 03:29:07;;;;;;;57.00;38.25;;;;;;;14.63;42.75;92701.72;4968429;28;20049;-83
2022/01/06 03:31:32;;;;;;;47.08;33.40;;;;;;;14.55;42.96;92698.81;4951251;28;20075;-83
2022/01/06 03:33:58;;;;;;;52.83;37.58;;;;;;;14.53;43.24;92695.09;4935768;28;20043;-84
2022/01/06 03:36:24;;;;;;;58.28;36.70;;;;;;;14.60;42.80;92697.28;4931900;28;20035;-85
2022/01/06 03:38:49;;;;;;;54.75;37.50;;;;;;;14.58;42.76;92695.06;4918802;28;20039;-83
2022/01/06 03:41:15;;;;;;;52.28;35.78;;;;;;;14.50;42.96;92696.13;4934731;28;20050;-84
2022/01/06 03:43:40;;;;;;;55.15;37.83;;;;;;;14.50;43.11;92701.56;4951408;28;20081;-83
2022/01/06 03:46:05;;;;;;;53.95;35.50;;;;;;;14.51;42.97;92705.75;4934979;28;20089;-83
2022/01/06 03:48:31;;;;;;;53.67;35.38;;;;;;;14.48;42.88;92710.22;4935493;28;20035;-83
2022/01/06 03:50:56;;;;;;;49.67;34.60;;;;;;;14.48;43.06;92720.38;4935806;28;20038;-83
2022/01/06 03:53:22;;;;;;;47.40;32.25;;;;;;;14.46;42.93;92726.31;4935058;28;20094;-84
2022/01/06 03:55:47;;;;;;;50.53;35.90;;;;;;;14.49;42.94;92725.31;4968435;28;20489;-83
2022/01/06 03:58:12;;;;;;;51.83;35.08;;;;;;;14.56;42.88;92724.00;4951074;28;20039;-84
2022/01/06 04:00:38;;;;;;;55.97;36.10;;;;;;;14.57;42.83;92725.50;4951092;28;20046;-83
2022/01/06 04:03:03;;;;;;;50.88;36.30;;;;;;;14.58;43.02;92724.25;4950799;28;20050;-83
2022/01/06 04:05:31;;;;;;;54.70;36.97;;;;;;;14.51;43.01;92728.22;4935595;28;20039;-83
2022/01/06 04:07:57;;;;;;;52.17;34.85;;;;;;;14.56;42.79;92729.47;4951686;28;20094;-83
2022/01/06 04:10:22;;;;;;;44.03;31.70;;;;;;;14.51;43.22;92727.50;4950578;28;20091;-83
2022/01/06 04:12:48;;;;;;;45.15;32.58;;;;;;;14.51;42.74;92730.22;4951040;28;20039;-83
2022/01/06 04:15:14;;;;;;;47.28;33.50;;;;;;;14.45;43.11;92726.81;4935143;28;20043;-83
2022/01/06 04:17:40;;;;;;;49.40;35.17;;;;;;;14.51;43.05;92733.66;4951239;28;20089;-83
2022/01/06 04:20:07;;;;;;;50.08;32.92;;;;;;;14.52;42.96;92737.88;4935031;28;20031;-83
2022/01/06 04:22:33;;;;;;;49.60;35.75;;;;;;;14.59;42.66;92747.50;4935741;28;20042;-83
2022/01/06 04:24:58;;;;;;;45.75;30.85;;;;;;;14.61;42.73;92742.28;4919112;28;20047;-83
2022/01/06 04:27:23;;;;;;;48.83;35.47;;;;;;;14.53;42.72;92744.06;4950707;28;20035;-83
2022/01/06 04:29:49;;;;;;;44.50;31.27;;;;;;;14.56;42.73;92751.94;4951604;28;20038;-84
2022/01/06 04:32:14;;;;;;;50.75;34.33;;;;;;;14.54;42.77;92749.00;4967433;28;20051;-83
2022/01/06 04:34:39;;;;;;;43.92;33.13;;;;;;;14.53;42.90;92752.22;4954727;28;20039;-83
2022/01/06 04:37:05;;;;;;;48.83;35.55;;;;;;;14.54;43.10;92761.84;4938632;28;20042;-83
2022/01/06 04:39:30;;;;;;;50.45;35.80;;;;;;;14.50;43.01;92770.28;4923027;28;20441;-83
2022/01/06 04:41:56;;;;;;;50.10;31.45;;;;;;;14.55;42.96;92761.34;4971915;28;20043;-83
2022/01/06 04:44:21;;;;;;;48.53;34.03;;;;;;;14.53;43.16;92763.84;4953670;28;20057;-83
2022/01/06 04:46:47;;;;;;;48.08;32.72;;;;;;;14.57;42.75;92755.41;4938666;28;20046;-83
2022/01/06 04:49:13;;;;;;;51.80;35.17;;;;;;;14.55;43.11;92766.06;4954778;28;20042;-83
2022/01/06 04:51:38;;;;;;;48.35;34.72;;;;;;;14.61;43.12;92785.81;4954901;28;20035;-83
2022/01/06 04:54:03;;;;;;;49.03;35.72;;;;;;;14.57;42.64;92771.72;4971295;28;20050;-83
2022/01/06 04:56:35;;;;;;;43.45;32.13;;;;;;;14.59;42.79;92772.72;4954734;28;20513;-83
2022/01/06 04:59:04;;;;;;;50.50;35.38;;;;;;;14.53;43.13;92777.44;4955695;28;20035;-83
2022/01/06 05:01:30;;;;;;;41.78;31.15;;;;;;;14.54;42.68;92770.75;4920557;28;20043;-83
2022/01/06 05:03:55;;;;;;;42.42;30.25;;;;;;;14.53;43.08;92777.44;4938301;28;20054;-83
2022/01/06 05:06:20;;;;;;;46.22;33.35;;;;;;;14.46;43.04;92772.53;4937868;28;20043;-83
2022/01/06 05:08:46;;;;;;;47.53;33.50;;;;;;;14.51;43.06;92771.00;4954002;28;20282;-83
2022/01/06 05:11:11;;;;;;;44.30;33.13;;;;;;;14.59;42.79;92772.72;4937533;28;20483;-83
2022/01/06 05:13:37;;;;;;;46.90;32.22;;;;;;;14.55;42.86;92777.66;4954306;28;20493;-83
2022/01/06 05:16:03;;;;;;;47.22;32.92;;;;;;;14.61;42.66;92774.94;4954027;28;20058;-83
2022/01/06 05:18:28;;;;;;;44.75;32.08;;;;;;;14.56;42.90;92772.97;4922757;28;20042;-83
2022/01/06 05:20:54;;;;;;;44.92;32.17;;;;;;;14.53;42.73;92779.41;4937916;28;20045;-83
2022/01/06 05:23:20;;;;;;;46.53;32.72;;;;;;;14.50;43.18;92778.44;4921559;28;20031;-83
2022/01/06 05:25:45;;;;;;;47.08;33.65;;;;;;;14.51;43.04;92773.72;4922433;28;20049;-83
2022/01/06 05:28:10;;;;;;;46.95;33.72;;;;;;;14.56;42.99;92778.41;4937505;28;20073;-83
2022/01/06 05:30:36;;;;;;;47.10;32.75;;;;;;;14.55;42.74;92782.38;4954102;28;20097;-83
2022/01/06 05:33:01;;;;;;;49.95;32.97;;;;;;;14.50;43.08;92775.00;4953464;28;20493;-83
2022/01/06 05:35:27;;;;;;;48.38;31.85;;;;;;;14.62;42.74;92776.41;4937290;28;20042;-83
2022/01/06 05:37:52;;;;;;;42.65;31.15;;;;;;;14.59;42.71;92786.31;4922552;28;20372;-83
2022/01/06 05:40:17;;;;;;;46.10;34.08;;;;;;;14.62;42.54;92787.28;4952871;28;20049;-84
2022/01/06 05:42:44;;;;;;;41.90;30.10;;;;;;;14.63;42.66;92783.34;4970677;28;20117;-83
2022/01/06 05:45:11;;;;;;;45.50;32.08;;;;;;;14.58;42.64;92786.81;4953012;28;20047;-83
2022/01/06 05:47:36;;;;;;;49.63;34.15;;;;;;;14.52;42.96;92788.81;4922328;28;20035;-84
2022/01/06 05:50:02;;;;;;;44.78;32.97;;;;;;;14.55;42.96;92793.25;4971418;28;20046;-83
2022/01/06 05:52:28;;;;;;;47.15;33.30;;;;;;;14.57;42.74;92798.94;4921433;28;20059;-83
2022/01/06 05:54:53;;;;;;;44.42;32.35;;;;;;;14.54;42.75;92805.38;4953782;28;20042;-83
2022/01/06 05:57:19;;;;;;;45.22;32.60;;;;;;;14.50;43.05;92810.34;4953037;28;20038;-83
2022/01/06 05:59:45;;;;;;;47.15;32.03;;;;;;;14.52;43.13;92810.56;4937680;28;20058;-84
2022/01/06 06:02:10;;;;;;;45.33;32.67;;;;;;;14.51;43.56;92803.63;4937173;28;20039;-83
2022/01/06 06:04:36;;;;;;;44.78;31.77;;;;;;;14.53;43.06;92795.72;4953347;28;20564;-83
2022/01/06 06:07:01;;;;;;;46.28;30.77;;;;;;;14.57;43.10;92815.25;4931307;28;20046;-83
2022/01/06 06:09:26;;;;;;;42.08;29.63;;;;;;;14.60;42.50;92815.00;4967282;28;20057;-83
2022/01/06 06:11:52;;;;;;;45.70;30.73;;;;;;;14.57;42.79;92809.81;4965775;28;20039;-83
2022/01/06 06:14:17;;;;;;;44.72;31.90;;;;;;;14.56;42.84;92806.34;4951794;28;20038;-83
2022/01/06 06:16:43;;;;;;;38.22;28.55;;;;;;;14.61;42.55;92808.31;4952292;28;20035;-83
2022/01/06 06:19:08;;;;;;;42.88;31.73;;;;;;;14.55;42.70;92815.00;4968650;28;20403;-83
2022/01/06 06:21:33;;;;;;;40.80;30.08;;;;;;;14.58;42.90;92811.28;4969172;28;20039;-83
2022/01/06 06:23:59;;;;;;;43.72;30.98;;;;;;;14.51;42.88;92809.81;4970341;28;20383;-83
2022/01/06 06:26:24;;;;;;;39.58;27.02;;;;;;;14.50;43.09;92813.06;4936449;28;20047;-83
2022/01/06 06:28:49;;;;;;;40.45;28.95;;;;;;;14.60;42.81;92816.97;4936969;28;20089;-83
2022/01/06 06:31:15;;;;;;;41.13;29.75;;;;;;;14.58;42.62;92811.28;4936510;28;20446;-83
2022/01/06 06:33:40;;;;;;;41.60;28.83;;;;;;;14.57;42.80;92820.69;4969690;28;20043;-83
2022/01/06 06:36:06;;;;;;;42.13;31.58;;;;;;;14.53;42.58;92822.91;4935844;28;20043;-83
2022/01/06 06:38:31;;;;;;;39.72;28.73;;;;;;;14.53;42.80;92817.47;4936683;28;20034;-84
2022/01/06 06:40:56;;;;;;;40.08;28.80;;;;;;;14.53;42.71;92820.19;4952452;28;20409;-84
2022/01/06 06:43:22;;;;;;;42.42;30.25;;;;;;;14.54;43.14;92821.69;4969447;28;20039;-83
2022/01/06 06:45:47;;;;;;;43.72;30.20;;;;;;;14.54;43.00;92825.16;4970080;28;20042;-83
2022/01/06 06:48:13;;;;;;;45.03;30.25;;;;;;;14.53;42.89;92817.47;4932871;29;20487;-83
2022/01/06 06:50:38;;;;;;;40.75;29.20;;;;;;;14.51;42.67;92823.41;4917480;29;20046;-83
2022/01/06 06:53:04;;;;;;;36.45;27.00;;;;;;;14.55;42.84;92825.88;4917092;28;20043;-83
2022/01/06 06:55:30;;;;;;;39.78;28.52;;;;;;;14.52;42.77;92819.47;4932698;28;20046;-83
2022/01/06 06:57:55;;;;;;;42.03;29.45;;;;;;;14.51;42.88;92823.41;4950463;29;20122;-83
2022/01/06 07:00:20;;;;;;;36.45;24.80;;;;;;;14.59;42.61;92821.66;4926370;28;20336;-83
2022/01/06 07:02:46;;;;;;;43.88;30.00;;;;;;;14.55;42.85;92842.19;4933087;28;20406;-84
2022/01/06 07:05:12;;;;;;;39.42;28.67;;;;;;;14.57;42.84;92834.28;4916535;28;20065;-83
2022/01/06 07:07:37;;;;;;;38.92;27.92;;;;;;;14.55;42.64;92840.22;4917445;29;20554;-83
2022/01/06 07:10:03;;;;;;;39.97;29.95;;;;;;;14.48;43.00;92838.03;4932664;28;20078;-83
2022/01/06 07:12:30;;;;;;;40.55;27.77;;;;;;;14.59;42.65;92837.25;4942837;28;20057;-84
2022/01/06 07:14:56;;;;;;;37.85;28.00;;;;;;;14.54;42.76;92838.00;4952812;28;20144;-83
2022/01/06 07:17:22;;;;;;;36.75;27.50;;;;;;;14.57;42.70;92842.44;4919523;28;20573;-83
2022/01/06 07:19:47;;;;;;;38.50;28.55;;;;;;;14.53;42.98;92841.97;4951775;28;20038;-84
2022/01/06 07:22:12;;;;;;;37.35;26.55;;;;;;;14.56;42.63;92849.88;4935329;28;20050;-83
2022/01/06 07:24:39;;;;;;;36.25;26.30;;;;;;;14.50;42.83;92849.16;4919905;28;20557;-83
2022/01/06 07:27:04;;;;;;;40.45;26.95;;;;;;;14.57;42.59;92850.59;4935567;28;20035;-83
2022/01/06 07:29:29;;;;;;;41.20;28.92;;;;;;;14.53;42.64;92859.03;4951737;28;20390;-83
2022/01/06 07:31:55;;;;;;;37.17;27.17;;;;;;;14.56;42.85;92865.44;4935879;28;20063;-83
2022/01/06 07:34:20;;;;;;;38.30;27.27;;;;;;;14.52;42.91;92862.97;4951274;28;20465;-83
2022/01/06 07:36:46;;;;;;;39.78;28.40;;;;;;;14.54;42.83;92867.91;4935472;28;20037;-84
2022/01/06 07:39:11;;;;;;;35.22;25.98;;;;;;;14.54;42.83;92868.66;4950966;28;20038;-83
2022/01/06 07:41:36;;;;;;;38.00;28.00;;;;;;;14.51;42.78;92874.34;4951876;28;20098;-84
2022/01/06 07:44:06;;;;;;;39.30;27.92;;;;;;;14.56;42.77;92879.03;4951716;28;20042;-84
2022/01/06 07:46:31;;;;;;;37.55;26.70;;;;;;;14.59;42.86;92889.66;4935782;28;20109;-83
2022/01/06 07:48:57;;;;;;;38.78;27.17;;;;;;;14.53;42.71;92888.19;4932677;29;20455;-83
2022/01/06 07:51:26;;;;;;;38.08;26.85;;;;;;;14.56;42.82;92893.38;4931936;28;20050;-83
2022/01/06 07:53:51;;;;;;;34.60;25.70;;;;;;;14.55;42.88;92891.91;4932631;28;20486;-83
2022/01/06 07:56:17;;;;;;;37.63;26.33;;;;;;;14.52;42.91;92898.34;4900274;29;20071;-83
2022/01/06 07:58:43;;;;;;;38.95;26.52;;;;;;;14.56;42.76;92898.09;4916505;29;20130;-84
2022/01/06 08:01:09;;;;;;;34.53;25.83;;;;;;;14.62;42.42;92894.13;4915770;28;20043;-83
2022/01/06 08:03:34;;;;;;;38.25;24.58;;;;;;;14.58;42.63;92898.31;4968734;28;20193;-83
2022/01/06 08:06:00;;;;;;;38.25;28.63;;;;;;;14.57;42.66;92905.00;4951482;28;20039;-83
2022/01/06 08:08:25;;;;;;;35.35;26.02;;;;;;;14.52;43.04;92900.31;4952531;28;20034;-83
2022/01/06 08:10:50;;;;;;;35.55;26.13;;;;;;;14.50;42.85;92916.41;4955278;28;20064;-83
2022/01/06 08:13:16;;;;;;;37.90;27.60;;;;;;;14.53;42.71;92907.97;4954717;28;20046;-83
2022/01/06 08:15:41;;;;;;;30.65;22.80;;;;;;;14.61;42.57;92913.66;4955349;28;20050;-83
2022/01/06 08:18:07;;;;;;;33.72;23.77;;;;;;;14.53;42.42;92910.69;4954914;28;20043;-83
2022/01/06 08:20:34;;;;;;;33.85;25.13;;;;;;;14.56;43.01;92908.97;4923369;28;20047;-83
2022/01/06 08:23:02;;;;;;;35.80;25.73;;;;;;;14.48;42.78;92918.88;4939396;28;20126;-83
2022/01/06 08:25:27;;;;;;;32.83;24.17;;;;;;;14.55;42.81;92924.53;4972084;28;20082;-83
2022/01/06 08:27:53;;;;;;;33.65;24.25;;;;;;;14.54;42.98;92914.91;4954762;28;20469;-83
2022/01/06 08:30:18;;;;;;;33.80;26.80;;;;;;;14.53;42.78;92920.84;4971721;28;20047;-83
2022/01/06 08:32:43;;;;;;;32.60;23.10;;;;;;;14.52;42.80;92919.34;4954624;28;20038;-84
2022/01/06 08:35:09;;;;;;;31.55;23.95;;;;;;;14.56;42.69;92928.00;4954245;28;20047;-83
2022/01/06 08:37:34;;;;;;;34.38;24.10;;;;;;;14.55;43.09;92929.22;4954411;28;20042;-84
2022/01/06 08:40:00;;;;;;;35.55;25.50;;;;;;;14.52;42.59;92927.50;4938896;28;20553;-83
2022/01/06 08:42:25;;;;;;;36.58;25.20;;;;;;;14.58;42.65;92929.00;4938096;28;20038;-83
2022/01/06 08:44:50;;;;;;;31.67;22.63;;;;;;;14.52;42.91;92936.41;4938856;28;20688;-83
2022/01/06 08:47:16;;;;;;;36.65;25.65;;;;;;;14.56;42.68;92938.88;4954179;28;20047;-83
2022/01/06 08:49:41;;;;;;;36.47;26.70;;;;;;;14.57;42.70;92951.25;4935281;28;20043;-84
2022/01/06 08:52:07;;;;;;;30.17;23.33;;;;;;;14.56;42.57;92947.03;4935202;28;20043;-83
2022/01/06 08:54:32;;;;;;;36.22;24.23;;;;;;;14.59;42.63;92944.06;4935429;28;20047;-84
2022/01/06 08:56:58;;;;;;;31.52;23.23;;;;;;;14.65;42.50;92957.66;4935521;28;20086;-83
2022/01/06 08:59:23;;;;;;;30.00;22.63;;;;;;;14.59;42.48;92951.50;4905483;28;20027;-84
2022/01/06 09:01:49;;;;;;;33.53;24.50;;;;;;;14.61;42.39;92955.19;4971731;28;20413;-83
2022/01/06 09:04:15;;;;;;;35.20;24.52;;;;;;;14.60;42.62;92966.56;4953973;28;20062;-83
2022/01/06 09:06:40;;;;;;;38.13;25.65;;;;;;;14.58;42.46;92967.06;4938967;28;20524;-83
2022/01/06 09:09:06;;;;;;;33.55;26.10;;;;;;;14.56;42.70;92966.81;4938532;28;20121;-83
2022/01/06 09:11:31;;;;;;;32.20;23.40;;;;;;;14.64;42.67;92973.25;4954146;28;20441;-83
2022/01/06 09:13:56;;;;;;;33.15;24.30;;;;;;;14.59;42.54;92965.84;4938491;28;20039;-84
2022/01/06 09:16:23;;;;;;;33.72;24.98;;;;;;;14.55;42.74;92983.63;4937581;28;20046;-83
2022/01/06 09:18:49;;;;;;;31.60;24.45;;;;;;;14.59;42.56;92986.84;4938516;28;20267;-83
2022/01/06 09:21:16;;;;;;;33.90;24.48;;;;;;;14.60;42.50;92980.91;4937482;28;20082;-83
2022/01/06 09:23:42;;;;;;;31.13;22.10;;;;;;;14.59;42.35;92990.31;4937753;28;20039;-83
2022/01/06 09:26:07;;;;;;;27.70;20.98;;;;;;;14.54;42.75;92990.31;4953786;28;20077;-83
2022/01/06 09:28:33;;;;;;;34.17;24.33;;;;;;;14.61;42.44;92995.25;4938382;28;20057;-83
2022/01/06 09:30:58;;;;;;;30.92;22.65;;;;;;;14.61;42.48;92992.53;4921998;28;20414;-83
2022/01/06 09:33:23;;;;;;;29.88;23.17;;;;;;;14.52;42.82;92995.50;4918212;28;20300;-84
2022/01/06 09:35:49;;;;;;;32.17;23.85;;;;;;;14.58;42.48;92993.53;4950847;28;20051;-83
2022/01/06 09:38:15;;;;;;;32.28;23.73;;;;;;;14.64;42.46;92999.72;4934374;28;20035;-84
2022/01/06 09:40:41;;;;;;;26.83;19.75;;;;;;;14.63;42.34;92998.97;4950689;28;20036;-83
2022/01/06 09:43:06;;;;;;;27.85;21.98;;;;;;;14.62;42.32;93007.63;4950074;28;20513;-83
2022/01/06 09:45:32;;;;;;;33.63;23.70;;;;;;;14.54;42.74;92996.50;4934524;28;20043;-83
2022/01/06 09:47:58;;;;;;;30.40;23.05;;;;;;;14.54;42.62;93006.63;4950196;28;20402;-83
2022/01/06 09:50:23;;;;;;;31.42;22.98;;;;;;;14.62;42.75;93002.19;4933899;28;20047;-83
2022/01/06 09:52:50;;;;;;;33.25;24.08;;;;;;;14.57;42.49;92994.75;4934392;28;20055;-83
2022/01/06 09:55:15;;;;;;;30.88;23.67;;;;;;;14.54;42.72;93001.94;4934095;28;20066;-83
2022/01/06 09:57:48;;;;;;;33.97;24.88;;;;;;;14.59;42.60;93003.16;4934349;29;20043;-84
2022/01/06 10:00:14;;;;;;;31.35;23.13;;;;;;;14.56;42.71;93006.88;4913988;29;20114;-83
2022/01/06 10:02:40;;;;;;;32.20;23.42;;;;;;;14.59;42.78;92990.31;4942069;28;20055;-83
2022/01/06 10:05:06;;;;;;;29.70;22.45;;;;;;;14.60;42.68;93007.38;4933374;28;20106;-84
2022/01/06 10:07:37;;;;;;;30.02;23.27;;;;;;;14.66;42.51;93006.13;4932953;29;20517;-83
2022/01/06 10:10:05;;;;;;;29.60;22.35;;;;;;;14.64;42.52;93000.44;4932361;28;20458;-83
2022/01/06 10:12:31;;;;;;;30.40;20.27;;;;;;;14.70;42.59;93011.34;4933399;28;20035;-83
2022/01/06 10:14:57;;;;;;;29.00;20.20;;;;;;;14.66;42.51;93013.56;4932534;29;20070;-83
2022/01/06 10:17:30;;;;;;;32.35;22.73;;;;;;;14.68;42.13;93019.25;4933791;28;20047;-83
2022/01/06 10:19:55;;;;;;;31.60;23.70;;;;;;;14.66;42.28;93006.13;4949745;28;20059;-84
2022/01/06 10:22:21;;;;;;;29.70;22.52;;;;;;;14.66;42.56;93019.00;4932889;28;20050;-83
2022/01/06 10:24:48;;;;;;;31.27;21.88;;;;;;;14.66;42.51;93022.47;4930715;28;20055;-83
2022/01/06 10:27:15;;;;;;;27.88;20.00;;;;;;;14.75;42.10;93021.44;4912106;28;20040;-83
2022/01/06 10:29:45;;;;;;;29.00;22.25;;;;;;;14.68;42.46;93028.16;4930467;28;20542;-83
2022/01/06 10:32:13;;;;;;;28.77;20.73;;;;;;;14.62;42.42;93021.97;4897519;29;20083;-84
2022/01/06 10:34:41;;;;;;;28.55;20.55;;;;;;;14.66;42.63;93025.19;4899342;29;20043;-83
2022/01/06 10:37:22;;;;;;;33.22;22.70;;;;;;;14.61;42.46;93033.34;4944180;28;20400;-83
2022/01/06 10:39:49;;;;;;;26.85;20.30;;;;;;;14.71;42.24;93035.34;4949519;28;20529;-83
2022/01/06 10:42:14;;;;;;;32.65;22.75;;;;;;;14.60;42.75;93037.28;4948576;28;20046;-83
2022/01/06 10:44:54;;;;;;;25.65;20.50;;;;;;;14.57;42.94;93025.44;4933461;28;20328;-83
2022/01/06 10:47:32;;;;;;;28.60;21.33;;;;;;;14.64;42.35;93035.06;4933245;28;20054;-84
2022/01/06 10:50:15;;;;;;;31.00;20.98;;;;;;;14.64;42.72;93022.22;4951050;28;20130;-83
2022/01/06 10:52:43;;;;;;;27.50;21.73;;;;;;;14.62;42.57;93032.84;4949219;28;20122;-84
2022/01/06 10:55:23;;;;;;;31.33;21.77;;;;;;;14.64;42.59;93035.81;4916896;28;20457;-83
2022/01/06 10:58:03;;;;;;;31.77;22.52;;;;;;;14.64;42.52;93035.06;4919263;29;20045;-84
2022/01/06 11:00:28;;;;;;;28.73;22.63;;;;;;;14.68;42.34;93036.31;4934212;28;20050;-84
2022/01/06 11:03:09;;;;;;;28.27;21.63;;;;;;;14.65;42.45;93047.44;4950589;28;20414;-84
2022/01/06 11:05:35;;;;;;;;;;;;;;;14.64;42.64;93046.69;4949256;28;20050;-83
2022/01/06 11:08:01;;;;;;;27.20;20.83;;;;;;;14.71;42.35;93050.91;4933215;29;19922;-83
2022/01/06 11:10:26;;;;;;;26.83;20.15;;;;;;;14.64;42.73;93054.88;4917051;29;20131;-83
2022/01/06 11:12:52;;;;;;;27.77;20.50;;;;;;;14.68;42.48;93047.19;4933007;28;20046;-83
2022/01/06 11:15:17;;;;;;;30.63;22.38;;;;;;;14.65;42.64;93050.16;4932933;28;20036;-83
2022/01/06 11:17:47;;;;;;;32.63;23.60;;;;;;;14.66;42.49;93035.31;4933001;28;20043;-83
2022/01/06 11:20:13;;;;;;;31.15;23.30;;;;;;;14.71;42.25;93048.94;4916562;28;20082;-83
2022/01/06 11:22:48;;;;;;;31.08;22.25;;;;;;;14.69;42.33;93045.22;4933005;28;20502;-84
2022/01/06 11:25:13;;;;;;;31.73;21.77;;;;;;;14.67;42.08;93050.41;4932466;28;20482;-83